createdAt,value
2018-05-16T00:00:42.084Z,93.10
2018-05-16T00:03:10.423Z,92.80
2018-05-16T00:05:38.727Z,92.90
2018-05-16T00:08:07.036Z,93.00
2018-05-16T00:10:35.383Z,93.10
2018-05-16T00:13:03.710Z,92.80
2018-05-16T00:15:32.780Z,93.10
2018-05-16T00:18:01.128Z,93.10
2018-05-16T00:20:29.515Z,92.80
2018-05-16T00:22:57.959Z,92.70
2018-05-16T00:25:26.292Z,92.70
2018-05-16T00:27:54.607Z,92.80
2018-05-16T00:30:22.910Z,92.90
2018-05-16T00:32:52.000Z,92.90
2018-05-16T00:35:20.312Z,92.90
2018-05-16T00:37:48.676Z,92.70
2018-05-16T00:40:17.766Z,93.00
2018-05-16T00:42:46.082Z,92.90
2018-05-16T00:45:14.428Z,92.70
2018-05-16T00:47:42.741Z,92.70
2018-05-16T00:50:11.063Z,92.70
2018-05-16T00:52:39.401Z,93.00
2018-05-16T00:55:07.706Z,92.70
2018-05-16T00:57:36.012Z,92.70
2018-05-16T01:00:03.772Z,92.70
2018-05-16T01:02:32.085Z,92.70
2018-05-16T01:05:00.417Z,92.70
2018-05-16T01:07:28.738Z,93.10
2018-05-16T01:09:57.072Z,92.60
2018-05-16T01:12:25.400Z,92.70
2018-05-16T01:14:53.714Z,92.70
2018-05-16T01:17:22.038Z,92.70
2018-05-16T01:19:50.390Z,93.20
2018-05-16T01:22:18.706Z,92.70
2018-05-16T01:24:47.008Z,92.70
2018-05-16T01:27:15.354Z,92.70
2018-05-16T01:29:43.652Z,92.70
2018-05-16T01:32:11.964Z,92.60
2018-05-16T01:34:40.283Z,92.70
2018-05-16T01:37:08.609Z,92.70
2018-05-16T01:39:36.927Z,92.80
2018-05-16T01:42:06.010Z,92.70
2018-05-16T01:44:34.359Z,92.70
2018-05-16T01:47:02.665Z,92.70
2018-05-16T01:49:30.983Z,92.90
2018-05-16T01:52:00.092Z,92.70
2018-05-16T01:54:28.404Z,92.70
2018-05-16T01:56:56.710Z,92.70
2018-05-16T01:59:25.027Z,92.90
2018-05-16T02:01:54.138Z,92.80
2018-05-16T02:04:22.439Z,92.70
2018-05-16T02:06:50.767Z,92.80
2018-05-16T02:09:19.076Z,92.30
2018-05-16T02:11:48.147Z,92.40
2018-05-16T02:14:16.465Z,92.40
2018-05-16T02:16:44.953Z,92.30
2018-05-16T02:19:13.279Z,92.70
2018-05-16T02:21:41.613Z,92.40
2018-05-16T02:24:09.914Z,91.70
2018-05-16T02:26:38.258Z,91.90
2018-05-16T02:29:07.348Z,91.40
2018-05-16T02:31:35.656Z,91.30
2018-05-16T02:34:03.976Z,90.80
2018-05-16T02:36:32.296Z,91.00
2018-05-16T02:39:01.660Z,91.10
2018-05-16T02:41:29.985Z,90.50
2018-05-16T02:43:58.293Z,90.80
2018-05-16T02:46:26.626Z,90.30
2018-05-16T02:48:54.942Z,90.30
2018-05-16T02:51:24.045Z,90.00
2018-05-16T02:53:52.385Z,89.90
2018-05-16T02:56:20.702Z,90.00
2018-05-16T02:58:49.815Z,90.20
2018-05-16T03:01:18.343Z,90.20
2018-05-16T03:03:46.650Z,90.20
2018-05-16T03:06:15.011Z,89.20
2018-05-16T03:08:43.320Z,88.60
2018-05-16T03:11:11.634Z,88.90
2018-05-16T03:13:40.736Z,88.50
2018-05-16T03:16:09.067Z,88.40
2018-05-16T03:18:37.399Z,88.30
2018-05-16T03:21:05.711Z,87.60
2018-05-16T03:23:34.066Z,87.10
2018-05-16T03:26:02.368Z,86.90
2018-05-16T03:28:30.696Z,86.30
2018-05-16T03:30:59.032Z,86.00
2018-05-16T03:33:27.377Z,85.60
2018-05-16T03:35:56.461Z,85.40
2018-05-16T03:38:25.005Z,85.40
2018-05-16T03:40:53.323Z,86.00
2018-05-16T03:43:21.641Z,84.80
2018-05-16T03:45:49.968Z,85.20
2018-05-16T03:48:18.271Z,84.60
2018-05-16T03:50:46.804Z,84.80
2018-05-16T03:53:15.135Z,84.40
2018-05-16T03:55:43.449Z,85.00
2018-05-16T03:58:23.720Z,85.00
2018-05-16T04:01:15.045Z,84.80
2018-05-16T04:03:54.675Z,86.20
2018-05-16T04:06:22.992Z,85.90
2018-05-16T04:08:51.313Z,85.30
2018-05-16T04:11:20.402Z,85.30
2018-05-16T04:13:48.714Z,85.20
2018-05-16T04:16:17.060Z,85.60
2018-05-16T04:18:45.371Z,85.60
2018-05-16T04:21:13.676Z,86.10
2018-05-16T04:23:42.027Z,87.00
2018-05-16T04:26:10.349Z,87.00
2018-05-16T04:28:38.673Z,86.30
2018-05-16T04:31:07.821Z,86.40
2018-05-16T04:33:36.123Z,86.40
2018-05-16T04:36:04.452Z,86.00
2018-05-16T04:38:39.253Z,87.00
2018-05-16T04:41:07.266Z,87.00
2018-05-16T04:43:35.588Z,86.50
2018-05-16T04:46:03.909Z,86.50
2018-05-16T04:48:32.273Z,86.00
2018-05-16T04:51:00.592Z,87.10
2018-05-16T04:53:29.682Z,87.50
2018-05-16T04:55:57.988Z,87.50
2018-05-16T04:58:26.321Z,87.80
2018-05-16T05:00:54.664Z,87.30
2018-05-16T05:03:23.157Z,87.80
2018-05-16T05:05:51.497Z,88.20
2018-05-16T05:08:20.005Z,88.60
2018-05-16T05:10:48.339Z,88.70
2018-05-16T05:13:16.656Z,87.40
2018-05-16T05:15:45.858Z,88.30
2018-05-16T05:18:15.882Z,87.80
2018-05-16T05:20:44.300Z,87.70
2018-05-16T05:23:12.622Z,87.10
2018-05-16T05:25:40.938Z,88.00
2018-05-16T05:28:09.290Z,88.40
2018-05-16T05:30:37.623Z,87.40
2018-05-16T05:33:05.950Z,87.90
2018-05-16T05:35:34.352Z,87.30
2018-05-16T05:38:02.810Z,88.10
2018-05-16T05:40:32.172Z,86.50
2018-05-16T05:43:00.496Z,85.90
2018-05-16T05:45:28.860Z,85.40
2018-05-16T05:47:57.199Z,84.10
2018-05-16T05:50:26.362Z,82.50
2018-05-16T05:52:54.667Z,82.40
2018-05-16T05:55:23.774Z,82.30
2018-05-16T05:57:52.096Z,82.80
2018-05-16T06:00:20.422Z,82.60
2018-05-16T06:02:48.742Z,82.30
2018-05-16T06:05:17.077Z,82.00
2018-05-16T06:07:45.432Z,80.40
2018-05-16T06:10:13.748Z,79.90
2018-05-16T06:12:42.202Z,80.00
2018-05-16T06:15:10.634Z,79.60
2018-05-16T06:17:38.963Z,79.60
2018-05-16T06:20:07.337Z,80.10
2018-05-16T06:22:35.688Z,80.40
2018-05-16T06:25:04.023Z,81.30
2018-05-16T06:27:32.378Z,80.10
2018-05-16T06:30:00.712Z,82.20
2018-05-16T06:32:29.054Z,80.40
2018-05-16T06:34:57.366Z,80.90
2018-05-16T06:37:26.367Z,80.50
2018-05-16T06:39:55.456Z,82.30
2018-05-16T06:42:26.894Z,82.30
2018-05-16T06:44:55.607Z,80.90
2018-05-16T06:47:23.942Z,82.90
2018-05-16T06:49:52.284Z,82.20
2018-05-16T06:52:20.665Z,83.40
2018-05-16T06:54:49.013Z,83.00
2018-05-16T06:57:17.373Z,83.30
2018-05-16T06:59:45.528Z,83.60
2018-05-16T07:02:13.856Z,81.30
2018-05-16T07:33:36.526Z,74.30
2018-05-16T07:36:04.890Z,73.90
2018-05-16T07:38:33.225Z,72.20
2018-05-16T07:41:01.638Z,71.70
2018-05-16T07:43:30.670Z,69.00
2018-05-16T07:45:58.993Z,68.60
2018-05-16T07:48:27.336Z,70.40
2018-05-16T07:50:55.672Z,69.00
2018-05-16T07:53:24.004Z,69.30
2018-05-16T08:01:39.022Z,69.30
2018-05-16T08:04:07.360Z,69.20
2018-05-16T08:06:35.697Z,70.60
2018-05-16T08:09:03.269Z,68.70
2018-05-16T08:11:32.195Z,69.90
2018-05-16T08:14:00.509Z,70.40
2018-05-16T08:16:29.630Z,70.70
2018-05-16T08:18:57.959Z,70.80
2018-05-16T08:21:26.288Z,70.60
2018-05-16T08:23:55.415Z,71.20
2018-05-16T08:26:23.751Z,71.20
2018-05-16T08:28:52.861Z,72.10
2018-05-16T08:31:21.190Z,72.40
2018-05-16T08:33:49.293Z,69.90
2018-05-16T08:36:17.635Z,71.00
2018-05-16T08:38:45.957Z,71.40
2018-05-16T08:41:14.283Z,71.30
2018-05-16T08:43:43.203Z,70.60
2018-05-16T08:46:30.004Z,70.70
2018-05-16T08:48:58.340Z,70.90
2018-05-16T08:51:26.703Z,71.40
2018-05-16T08:53:55.135Z,72.20
2018-05-16T08:56:24.342Z,71.10
2018-05-16T08:58:52.677Z,71.00
2018-05-16T09:01:21.021Z,70.90
2018-05-16T09:03:50.297Z,72.00
2018-05-16T09:06:18.632Z,71.90
2018-05-16T09:11:46.635Z,71.50
2018-05-16T09:14:14.980Z,72.50
2018-05-16T09:16:43.316Z,72.40
2018-05-16T09:19:11.661Z,71.70
2018-05-16T09:21:40.008Z,72.30
2018-05-16T09:24:08.345Z,71.20
2018-05-16T09:26:36.663Z,70.50
2018-05-16T09:29:04.985Z,73.30
2018-05-16T09:31:33.313Z,72.90
2018-05-16T09:34:07.012Z,70.10
2018-05-16T09:36:35.353Z,69.80
2018-05-16T09:39:03.240Z,68.60
2018-05-16T09:41:32.174Z,69.00
2018-05-16T09:44:01.094Z,66.40
2018-05-16T09:46:30.786Z,65.90
2018-05-16T09:48:59.697Z,65.90
2018-05-16T09:51:28.661Z,67.80
2018-05-16T09:53:57.691Z,66.00
2018-05-16T09:56:26.581Z,64.40
2018-05-16T09:58:55.505Z,64.30
2018-05-16T10:01:25.207Z,63.00
2018-05-16T10:03:54.871Z,62.90
2018-05-16T10:06:24.005Z,62.80
2018-05-16T10:08:52.870Z,63.20
2018-05-16T10:11:21.747Z,61.80
2018-05-16T10:16:44.466Z,60.90
2018-05-16T10:19:13.344Z,61.30
2018-05-16T10:21:42.238Z,60.40
2018-05-16T10:24:11.119Z,61.10
2018-05-16T10:26:40.074Z,61.90
2018-05-16T10:29:08.988Z,60.60
2018-05-16T10:31:37.894Z,59.90
2018-05-16T10:34:06.824Z,59.20
2018-05-16T10:36:35.690Z,59.60
2018-05-16T10:39:05.205Z,59.40
2018-05-16T10:41:34.148Z,63.10
2018-05-16T10:44:03.236Z,62.10
2018-05-16T10:46:32.141Z,62.10
2018-05-16T10:49:01.116Z,62.40
2018-05-16T10:51:30.239Z,63.60
2018-05-16T10:53:59.110Z,64.80
2018-05-16T10:56:28.007Z,65.90
2018-05-16T10:58:56.920Z,66.10
2018-05-16T11:01:29.508Z,64.80
2018-05-16T11:03:58.412Z,65.80
2018-05-16T11:06:28.108Z,66.70
2018-05-16T11:08:57.792Z,67.00
2018-05-16T11:11:26.734Z,67.00
2018-05-16T11:13:55.628Z,65.30
2018-05-16T11:16:24.535Z,65.90
2018-05-16T11:18:53.422Z,66.50
2018-05-16T11:21:22.390Z,67.10
2018-05-16T11:23:50.876Z,66.80
2018-05-16T11:26:19.743Z,65.30
2018-05-16T11:28:48.644Z,65.00
2018-05-16T11:31:17.751Z,65.70
2018-05-16T11:33:46.683Z,65.90
2018-05-16T11:36:15.569Z,67.00
2018-05-16T11:38:43.932Z,67.20
2018-05-16T11:41:12.250Z,67.70
2018-05-16T11:43:40.559Z,67.90
2018-05-16T11:46:08.908Z,66.90
2018-05-16T11:48:37.225Z,67.80
2018-05-16T11:51:05.544Z,67.20
2018-05-16T11:53:33.870Z,68.80
2018-05-16T11:56:02.196Z,68.10
2018-05-16T11:58:30.510Z,68.20
2018-05-16T12:00:58.837Z,67.50
2018-05-16T12:03:27.930Z,65.90
2018-05-16T12:05:56.250Z,65.90
2018-05-16T12:08:24.588Z,66.20
2018-05-16T12:10:52.911Z,66.90
2018-05-16T12:13:22.115Z,68.00
2018-05-16T12:15:50.438Z,68.00
2018-05-16T12:18:18.844Z,68.80
2018-05-16T12:20:47.180Z,70.60
2018-05-16T12:23:17.200Z,70.90
2018-05-16T12:25:45.534Z,68.10
2018-05-16T12:28:13.839Z,67.90
2018-05-16T12:30:42.211Z,66.10
2018-05-16T12:33:11.311Z,66.70
2018-05-16T12:35:39.671Z,66.50
2018-05-16T12:38:08.005Z,66.60
2018-05-16T12:40:36.389Z,64.50
2018-05-16T12:45:57.262Z,64.50
2018-05-16T12:48:25.641Z,64.10
2018-05-16T12:50:54.016Z,63.50
2018-05-16T12:53:22.344Z,62.20
2018-05-16T12:55:51.430Z,62.80
2018-05-16T12:58:20.607Z,63.70
2018-05-16T13:00:48.939Z,63.60
2018-05-16T13:03:17.278Z,62.50
2018-05-16T13:05:45.624Z,64.40
2018-05-16T13:11:07.064Z,60.40
2018-05-16T13:13:35.391Z,59.50
2018-05-16T13:16:03.710Z,61.40
2018-05-16T13:18:32.034Z,63.00
2018-05-16T13:21:00.367Z,59.40
2018-05-16T13:23:28.698Z,59.80
2018-05-16T13:25:57.593Z,59.60
2018-05-16T13:28:25.923Z,59.20
2018-05-16T13:30:54.247Z,59.70
2018-05-16T13:36:18.795Z,59.50
2018-05-16T13:38:47.246Z,58.80
2018-05-16T13:41:15.640Z,59.20
2018-05-16T13:43:43.996Z,59.50
2018-05-16T13:46:12.345Z,60.10
2018-05-16T13:48:40.665Z,59.00
2018-05-16T13:51:09.045Z,58.60
2018-05-16T13:53:37.372Z,59.50
2018-05-16T13:56:06.500Z,62.60
2018-05-16T13:58:34.817Z,62.00
2018-05-16T14:01:03.137Z,62.70
2018-05-16T14:03:31.460Z,63.10
2018-05-16T14:05:59.769Z,62.90
2018-05-16T14:08:28.115Z,60.40
2018-05-16T14:10:56.444Z,61.30
2018-05-16T14:13:24.791Z,60.90
2018-05-16T14:15:53.154Z,60.80
2018-05-16T14:18:21.637Z,61.10
2018-05-16T14:20:49.988Z,60.90
2018-05-16T14:23:18.369Z,62.00
2018-05-16T14:25:46.874Z,62.00
2018-05-16T14:28:15.193Z,63.80
2018-05-16T14:30:43.520Z,61.30
2018-05-16T14:33:12.430Z,62.10
2018-05-16T14:35:40.739Z,60.10
2018-05-16T14:38:09.649Z,59.40
2018-05-16T14:43:34.219Z,62.10
2018-05-16T14:46:03.111Z,59.90
2018-05-16T14:48:32.053Z,59.80
2018-05-16T14:51:01.158Z,59.40
2018-05-16T14:53:30.050Z,58.30
2018-05-16T14:56:00.592Z,59.60
2018-05-16T14:58:29.483Z,59.40
2018-05-16T15:00:58.374Z,61.00
2018-05-16T15:03:27.258Z,58.10
2018-05-16T15:08:57.224Z,58.10
2018-05-16T15:11:26.162Z,57.80
2018-05-16T15:13:55.143Z,59.20
2018-05-16T15:16:24.144Z,57.10
2018-05-16T15:18:53.035Z,57.20
2018-05-16T15:21:22.053Z,58.00
2018-05-16T15:23:51.049Z,58.70
2018-05-16T15:26:19.971Z,59.30
2018-05-16T15:28:48.949Z,58.00
2018-05-16T15:31:31.001Z,57.80
2018-05-16T15:33:59.905Z,57.80
2018-05-16T15:36:28.783Z,58.60
2018-05-16T15:38:57.766Z,57.70
2018-05-16T15:41:26.781Z,57.30
2018-05-16T15:43:55.680Z,56.80
2018-05-16T15:46:24.610Z,55.70
2018-05-16T15:48:53.505Z,55.50
2018-05-16T15:51:22.410Z,57.20
2018-05-16T16:11:15.321Z,58.40
2018-05-16T16:13:43.960Z,60.00
2018-05-16T16:16:12.890Z,60.60
2018-05-16T16:18:41.813Z,59.40
2018-05-16T16:21:10.717Z,59.60
2018-05-16T16:23:39.642Z,59.00
2018-05-16T16:26:08.563Z,58.40
2018-05-16T16:28:37.493Z,59.50
2018-05-16T16:31:06.395Z,59.70
2018-05-16T16:39:22.609Z,60.40
2018-05-16T16:41:51.514Z,59.30
2018-05-16T16:44:20.548Z,60.80
2018-05-16T16:46:49.495Z,62.70
2018-05-16T16:49:18.398Z,62.20
2018-05-16T16:51:46.752Z,63.40
2018-05-16T16:54:15.687Z,63.20
2018-05-16T16:56:44.588Z,62.50
2018-05-16T16:59:12.949Z,62.70
2018-05-16T17:01:41.304Z,65.00
2018-05-16T17:04:09.647Z,67.30
2018-05-16T17:06:37.984Z,67.80
2018-05-16T17:09:05.764Z,68.20
2018-05-16T17:11:34.163Z,68.30
2018-05-16T17:14:02.557Z,70.00
2018-05-16T17:16:31.265Z,70.20
2018-05-16T17:19:00.372Z,70.40
2018-05-16T17:21:28.701Z,70.30
2018-05-16T17:23:57.239Z,70.60
2018-05-16T17:26:25.611Z,70.20
2018-05-16T17:28:54.706Z,69.50
2018-05-16T17:31:23.040Z,69.50
2018-05-16T17:33:51.398Z,69.80
2018-05-16T17:36:19.400Z,69.70
2018-05-16T17:38:47.450Z,70.40
2018-05-16T17:41:15.793Z,70.70
2018-05-16T17:43:44.129Z,71.00
2018-05-16T17:46:12.541Z,72.20
2018-05-16T17:48:41.116Z,71.60
2018-05-16T17:51:09.455Z,72.30
2018-05-16T17:53:37.845Z,73.30
2018-05-16T17:56:06.356Z,72.30
2018-05-16T17:58:34.753Z,72.30
2018-05-16T18:01:04.455Z,70.40
2018-05-16T18:03:32.788Z,71.30
2018-05-16T18:06:00.892Z,70.40
2018-05-16T18:08:29.231Z,71.30
2018-05-16T18:10:57.568Z,71.40
2018-05-16T18:13:55.928Z,70.20
2018-05-16T18:16:35.419Z,70.50
2018-05-16T18:19:03.741Z,71.30
2018-05-16T18:21:38.855Z,71.70
2018-05-16T18:24:07.185Z,69.70
2018-05-16T18:26:35.550Z,73.10
2018-05-16T18:29:03.937Z,71.50
2018-05-16T18:31:32.286Z,71.70
2018-05-16T18:34:00.611Z,71.40
2018-05-16T18:36:28.972Z,73.50
2018-05-16T18:38:57.322Z,73.00
2018-05-16T18:41:25.668Z,71.70
2018-05-16T18:43:54.159Z,73.30
2018-05-16T18:46:22.494Z,73.80
2018-05-16T18:48:50.847Z,73.30
2018-05-16T18:51:19.225Z,74.40
2018-05-16T18:53:47.565Z,74.20
2018-05-16T18:56:15.929Z,74.40
2018-05-16T18:58:44.270Z,74.70
2018-05-16T19:01:12.600Z,75.60
2018-05-16T19:03:40.966Z,74.90
2018-05-16T19:06:10.100Z,78.10
2018-05-16T19:08:38.444Z,78.10
2018-05-16T19:11:06.769Z,76.30
2018-05-16T19:13:35.096Z,78.40
2018-05-16T19:16:03.428Z,77.20
2018-05-16T19:18:31.783Z,77.20
2018-05-16T19:21:00.908Z,77.10
2018-05-16T19:23:29.230Z,77.00
2018-05-16T19:25:57.559Z,77.60
2018-05-16T19:28:26.694Z,78.30
2018-05-16T19:30:55.109Z,78.30
2018-05-16T19:33:23.544Z,77.80
2018-05-16T19:35:51.903Z,79.40
2018-05-16T19:38:20.992Z,78.10
2018-05-16T19:40:49.377Z,78.10
2018-05-16T19:43:18.496Z,79.20
2018-05-16T19:45:47.672Z,79.20
2018-05-16T19:48:16.074Z,80.60
2018-05-16T19:50:45.781Z,80.70
2018-05-16T19:53:14.114Z,80.80
2018-05-16T19:55:42.474Z,78.60
2018-05-16T19:58:10.855Z,80.00
2018-05-16T20:00:39.173Z,79.40
2018-05-16T20:03:07.533Z,78.40
2018-05-16T20:05:36.668Z,79.60
2018-05-16T20:11:06.638Z,80.00
2018-05-16T20:13:34.997Z,79.90
2018-05-16T20:16:03.378Z,81.60
2018-05-16T20:18:32.622Z,81.50
2018-05-16T20:21:01.077Z,81.40
2018-05-16T20:23:29.519Z,80.30
2018-05-16T20:25:57.857Z,80.20
2018-05-16T20:28:26.238Z,79.90
2018-05-16T20:30:54.613Z,81.50
2018-05-16T20:33:23.810Z,79.70
2018-05-16T20:35:53.116Z,80.20
2018-05-16T20:38:21.476Z,80.10
2018-05-16T20:40:49.820Z,80.60
2018-05-16T20:43:18.233Z,81.30
2018-05-16T20:45:46.651Z,79.80
2018-05-16T20:48:14.999Z,80.40
2018-05-16T20:50:43.521Z,79.70
2018-05-16T20:56:05.290Z,80.60
2018-05-16T20:58:33.365Z,80.50
2018-05-16T21:01:01.732Z,79.40
2018-05-16T21:03:30.199Z,80.70
2018-05-16T21:05:59.356Z,81.00
2018-05-16T21:08:27.697Z,80.80
2018-05-16T21:10:56.211Z,81.00
2018-05-16T21:13:24.753Z,81.90
2018-05-16T21:15:53.140Z,81.30
2018-05-16T21:18:22.297Z,81.70
2018-05-16T21:20:51.126Z,81.50
2018-05-16T21:23:19.490Z,80.80
2018-05-16T21:25:47.836Z,80.80
2018-05-16T21:28:16.181Z,81.50
2018-05-16T21:30:44.545Z,80.60
2018-05-16T21:36:05.744Z,81.30
2018-05-16T21:38:34.209Z,82.00
2018-05-16T21:41:02.546Z,81.30
2018-05-16T21:43:30.895Z,81.70
2018-05-16T21:45:59.247Z,82.10
2018-05-16T21:48:27.562Z,83.20
2018-05-16T21:50:55.907Z,81.90
2018-05-16T21:53:24.261Z,82.40
2018-05-16T21:55:52.574Z,83.50
2018-05-16T21:58:20.911Z,82.30
2018-05-16T22:00:49.249Z,82.10
2018-05-16T22:03:17.594Z,82.40
2018-05-16T22:05:45.930Z,81.70
2018-05-16T22:08:14.245Z,81.90
2018-05-16T22:10:44.120Z,82.80
2018-05-16T22:13:12.440Z,82.70
2018-05-16T22:15:40.826Z,82.70
2018-05-16T22:18:09.521Z,82.80
2018-05-16T22:20:39.382Z,83.30
2018-05-16T22:23:07.745Z,83.30
2018-05-16T22:25:36.821Z,82.90
2018-05-16T22:28:05.163Z,82.90
2018-05-16T22:30:38.821Z,84.30
2018-05-16T22:33:12.566Z,83.00
2018-05-16T22:35:46.226Z,83.60
2018-05-16T22:38:27.474Z,83.80
2018-05-16T22:41:01.110Z,83.80
2018-05-16T22:43:44.090Z,84.20
2018-05-16T22:46:12.197Z,84.30
2018-05-16T22:48:40.523Z,83.80
2018-05-16T22:51:08.836Z,84.00
2018-05-16T22:53:37.169Z,83.90
2018-05-16T22:56:05.469Z,84.20
2018-05-16T23:01:27.311Z,83.80
2018-05-16T23:03:55.645Z,83.00
2018-05-16T23:06:23.962Z,83.30
2018-05-16T23:08:52.268Z,84.30
2018-05-16T23:11:20.600Z,84.30
2018-05-16T23:13:49.669Z,85.60
2018-05-16T23:16:18.047Z,85.60
2018-05-16T23:18:46.373Z,83.80
2018-05-16T23:21:15.477Z,84.80
2018-05-16T23:23:43.809Z,84.80
2018-05-16T23:26:12.149Z,84.10
2018-05-16T23:28:40.455Z,84.10
2018-05-16T23:31:08.776Z,84.10
2018-05-16T23:33:37.088Z,84.70
2018-05-16T23:36:05.422Z,84.70
2018-05-16T23:38:33.765Z,84.50
2018-05-16T23:41:02.103Z,84.70
2018-05-16T23:43:30.472Z,84.30
2018-05-16T23:45:58.778Z,83.70
2018-05-16T23:48:27.126Z,84.90
2018-05-16T23:50:55.429Z,84.80
2018-05-16T23:53:23.800Z,84.00
2018-05-16T23:55:52.106Z,86.00
2018-05-16T23:58:20.553Z,84.60
